createdAt,value
2023-03-31T00:00:18.782Z,1.83
2023-03-31T00:02:47.542Z,2.20
2023-03-31T00:05:18.223Z,2.38
2023-03-31T00:07:46.225Z,2.40
2023-03-31T00:10:18.438Z,2.47
2023-03-31T00:12:46.568Z,2.33
2023-03-31T00:15:13.716Z,2.00
2023-03-31T00:17:40.600Z,2.00
2023-03-31T00:20:12.384Z,2.40
2023-03-31T00:22:42.385Z,2.63
2023-03-31T00:25:16.706Z,2.00
2023-03-31T00:27:44.379Z,2.25
2023-03-31T00:30:13.790Z,2.38
2023-03-31T00:32:40.799Z,2.17
2023-03-31T00:35:08.801Z,2.30
2023-03-31T00:37:35.836Z,2.35
2023-03-31T00:40:09.735Z,2.10
2023-03-31T00:42:44.124Z,1.95
2023-03-31T00:45:14.053Z,2.17
2023-03-31T00:48:06.091Z,2.28
2023-03-31T00:50:37.856Z,2.05
2023-03-31T00:53:12.818Z,2.00
2023-03-31T00:55:44.270Z,2.08
2023-03-31T00:58:14.577Z,1.98
2023-03-31T01:00:42.994Z,2.10
2023-03-31T01:03:11.234Z,1.92
2023-03-31T01:05:50.145Z,2.28
2023-03-31T01:08:19.073Z,2.07
2023-03-31T01:10:50.680Z,1.90
2023-03-31T01:13:18.827Z,2.00
2023-03-31T01:15:45.882Z,2.00
2023-03-31T01:18:14.657Z,2.30
2023-03-31T01:21:23.431Z,2.47
2023-03-31T01:24:09.363Z,2.03
2023-03-31T01:27:02.467Z,2.25
2023-03-31T01:29:32.380Z,2.42
2023-03-31T01:32:23.405Z,2.60
2023-03-31T01:34:59.423Z,2.17
2023-03-31T01:37:45.221Z,2.30
2023-03-31T01:40:42.073Z,2.30
2023-03-31T01:43:43.549Z,2.05
2023-03-31T01:46:34.426Z,2.33
2023-03-31T01:49:04.341Z,1.90
2023-03-31T01:54:17.622Z,2.28
2023-03-31T01:56:52.462Z,2.22
2023-03-31T01:59:35.577Z,2.72
2023-03-31T02:02:14.085Z,2.53
2023-03-31T02:04:47.483Z,3.00
2023-03-31T02:07:24.344Z,2.63
2023-03-31T02:09:56.523Z,2.75
2023-03-31T02:12:27.689Z,2.92
2023-03-31T02:14:56.686Z,3.05
2023-03-31T02:20:21.972Z,2.72
2023-03-31T02:22:56.536Z,2.80
2023-03-31T02:25:28.859Z,3.10
2023-03-31T02:28:08.910Z,2.90
2023-03-31T02:30:51.538Z,2.65
2023-03-31T02:33:19.382Z,3.00
2023-03-31T02:35:46.419Z,2.72
2023-03-31T02:38:13.368Z,2.75
2023-03-31T02:40:41.504Z,3.05
2023-03-31T02:43:08.446Z,3.28
2023-03-31T02:45:43.414Z,3.50
2023-03-31T02:48:18.107Z,3.80
2023-03-31T02:51:13.863Z,3.60
2023-03-31T02:53:57.232Z,3.42
2023-03-31T02:57:01.514Z,3.67
2023-03-31T02:59:37.184Z,3.80
2023-03-31T03:02:19.038Z,3.88
2023-03-31T03:05:04.093Z,3.30
2023-03-31T03:07:37.627Z,3.50
2023-03-31T03:10:04.675Z,3.22
2023-03-31T03:13:07.138Z,3.00
2023-03-31T03:15:37.738Z,2.90
2023-03-31T03:18:06.675Z,3.10
2023-03-31T03:20:34.012Z,3.10
2023-03-31T03:23:00.996Z,2.63
2023-03-31T03:25:30.268Z,3.03
2023-03-31T03:27:57.229Z,2.85
2023-03-31T03:30:24.118Z,2.78
2023-03-31T03:32:51.123Z,2.70
2023-03-31T03:35:18.009Z,2.65
2023-03-31T03:37:44.903Z,2.95
2023-03-31T03:40:12.275Z,3.15
2023-03-31T03:42:39.119Z,2.97
2023-03-31T03:45:06.956Z,3.17
2023-03-31T03:47:34.299Z,3.10
2023-03-31T03:50:01.213Z,3.20
2023-03-31T03:52:28.429Z,2.92
2023-03-31T03:54:55.824Z,3.63
2023-03-31T03:57:22.787Z,3.20
2023-03-31T03:59:49.754Z,3.05
2023-03-31T04:02:16.641Z,3.88
2023-03-31T04:04:43.912Z,4.20
2023-03-31T04:07:10.727Z,3.58
2023-03-31T04:09:37.684Z,3.85
2023-03-31T04:12:04.787Z,3.50
2023-03-31T04:14:31.690Z,3.25
2023-03-31T04:16:58.773Z,3.58
2023-03-31T04:19:25.931Z,3.00
2023-03-31T04:22:02.697Z,3.20
2023-03-31T04:24:32.769Z,3.38
2023-03-31T04:27:00.828Z,3.53
2023-03-31T04:29:27.696Z,3.05
2023-03-31T04:31:58.797Z,3.17
2023-03-31T04:34:35.629Z,2.88
2023-03-31T04:37:03.421Z,3.50
2023-03-31T04:39:31.111Z,3.53
2023-03-31T04:41:59.869Z,2.80
2023-03-31T04:44:27.236Z,2.50
2023-03-31T04:46:54.560Z,3.33
2023-03-31T04:49:21.843Z,2.72
2023-03-31T04:51:48.927Z,3.00
2023-03-31T04:54:16.111Z,3.17
2023-03-31T04:56:43.207Z,3.50
2023-03-31T04:59:11.166Z,3.03
2023-03-31T05:01:38.150Z,3.47
2023-03-31T05:04:06.053Z,3.35
2023-03-31T05:06:33.169Z,3.28
2023-03-31T05:09:00.297Z,3.30
2023-03-31T05:11:27.529Z,3.45
2023-03-31T05:13:54.724Z,2.80
2023-03-31T05:16:21.787Z,3.28
2023-03-31T05:18:48.910Z,3.15
2023-03-31T05:21:21.012Z,2.75
2023-03-31T05:23:48.359Z,3.33
2023-03-31T05:26:15.967Z,3.20
2023-03-31T05:28:42.971Z,3.05
2023-03-31T05:31:11.381Z,3.15
2023-03-31T05:33:41.838Z,3.67
2023-03-31T05:36:11.999Z,4.00
2023-03-31T05:41:07.482Z,4.90
2023-03-31T05:43:34.422Z,4.90
2023-03-31T05:46:02.194Z,5.15
2023-03-31T05:48:30.050Z,4.93
2023-03-31T05:50:58.901Z,4.65
2023-03-31T05:53:26.518Z,4.85
2023-03-31T05:56:02.077Z,4.68
2023-03-31T05:58:29.654Z,4.75
2023-03-31T06:01:19.581Z,4.97
2023-03-31T06:03:47.209Z,4.45
2023-03-31T06:06:15.000Z,4.25
2023-03-31T06:08:43.072Z,4.35
2023-03-31T06:11:13.297Z,4.30
2023-03-31T06:13:41.486Z,4.55
2023-03-31T06:16:10.314Z,4.80
2023-03-31T06:18:40.282Z,3.90
2023-03-31T06:21:07.654Z,4.28
2023-03-31T06:23:34.953Z,4.47
2023-03-31T06:26:08.322Z,4.60
2023-03-31T06:28:36.494Z,4.53
2023-03-31T06:31:09.476Z,4.53
2023-03-31T06:33:36.836Z,4.57
2023-03-31T06:36:05.709Z,4.43
2023-03-31T06:38:34.028Z,4.47
2023-03-31T06:41:00.978Z,4.03
2023-03-31T06:43:28.096Z,3.92
2023-03-31T06:45:56.278Z,4.60
2023-03-31T06:48:25.235Z,4.90
2023-03-31T06:50:54.532Z,4.57
2023-03-31T06:53:22.280Z,5.13
2023-03-31T06:55:49.277Z,6.40
2023-03-31T06:58:16.213Z,7.10
2023-03-31T07:00:44.543Z,6.00
2023-03-31T07:03:11.586Z,5.60
2023-03-31T07:05:38.544Z,4.53
2023-03-31T07:08:06.064Z,5.30
2023-03-31T07:10:33.268Z,5.32
2023-03-31T07:13:00.145Z,6.13
2023-03-31T07:15:28.620Z,6.72
2023-03-31T07:18:02.638Z,8.88
2023-03-31T07:20:30.432Z,7.97
2023-03-31T07:22:57.504Z,7.55
2023-03-31T07:25:25.001Z,5.85
2023-03-31T07:27:51.848Z,6.28
2023-03-31T07:30:20.772Z,6.25
2023-03-31T07:32:49.914Z,6.70
2023-03-31T07:35:18.006Z,6.88
2023-03-31T07:37:47.384Z,6.55
2023-03-31T07:40:17.219Z,6.13
2023-03-31T07:42:49.135Z,6.00
2023-03-31T07:45:17.395Z,7.07
2023-03-31T07:47:46.525Z,6.85
2023-03-31T07:50:15.026Z,5.38
2023-03-31T07:52:44.173Z,4.82
2023-03-31T07:55:13.142Z,4.72
2023-03-31T07:57:40.753Z,4.38
2023-03-31T08:00:10.834Z,5.60
2023-03-31T08:02:43.050Z,4.53
2023-03-31T08:05:12.111Z,3.72
2023-03-31T08:07:41.780Z,4.00
2023-03-31T08:12:37.959Z,4.28
2023-03-31T08:15:05.887Z,4.30
2023-03-31T08:17:32.787Z,4.20
2023-03-31T08:20:03.759Z,4.57
2023-03-31T08:22:33.191Z,4.45
2023-03-31T08:25:00.107Z,4.72
2023-03-31T08:27:27.099Z,4.78
2023-03-31T08:29:53.942Z,4.32
2023-03-31T08:32:24.516Z,4.80
2023-03-31T08:34:51.658Z,5.15
2023-03-31T08:37:18.610Z,8.10
2023-03-31T08:39:46.100Z,7.13
2023-03-31T08:42:22.534Z,5.03
2023-03-31T08:45:03.617Z,5.75
2023-03-31T08:47:33.765Z,6.28
2023-03-31T08:50:13.903Z,5.95
2023-03-31T08:53:04.163Z,6.55
2023-03-31T08:55:49.776Z,6.03
2023-03-31T08:58:35.747Z,6.00
2023-03-31T09:01:23.657Z,5.80
2023-03-31T09:04:18.103Z,6.07
2023-03-31T09:06:55.398Z,6.15
2023-03-31T09:09:56.346Z,6.32
2023-03-31T09:12:26.285Z,5.80
2023-03-31T09:17:41.725Z,5.97
2023-03-31T09:20:14.530Z,6.28
2023-03-31T09:22:50.408Z,6.15
2023-03-31T09:25:32.188Z,6.13
2023-03-31T09:28:02.398Z,7.03
2023-03-31T09:30:36.877Z,6.28
2023-03-31T09:33:18.669Z,7.55
2023-03-31T09:35:46.846Z,6.05
2023-03-31T09:38:15.795Z,6.72
2023-03-31T09:40:43.403Z,6.85
2023-03-31T09:43:22.523Z,6.22
2023-03-31T09:46:01.779Z,6.18
2023-03-31T09:48:36.607Z,6.75
2023-03-31T09:51:15.455Z,6.30
2023-03-31T09:54:01.641Z,6.63
2023-03-31T09:56:43.981Z,7.20
2023-03-31T09:59:17.309Z,6.72
2023-03-31T10:01:47.142Z,7.10
2023-03-31T10:06:45.961Z,7.32
2023-03-31T10:09:13.018Z,7.13
2023-03-31T10:11:51.282Z,7.75
2023-03-31T10:14:24.134Z,7.13
2023-03-31T10:16:53.437Z,7.32
2023-03-31T10:19:27.226Z,6.65
2023-03-31T10:21:58.954Z,7.30
2023-03-31T10:24:27.792Z,7.43
2023-03-31T10:26:57.118Z,7.78
2023-03-31T10:29:31.697Z,6.45
2023-03-31T10:32:32.724Z,6.93
2023-03-31T10:35:32.566Z,7.30
2023-03-31T10:38:05.769Z,7.35
2023-03-31T10:40:34.985Z,7.05
2023-03-31T10:43:04.469Z,6.70
2023-03-31T10:45:38.630Z,7.50
2023-03-31T10:48:16.642Z,6.95
2023-03-31T10:50:44.340Z,6.90
2023-03-31T10:53:16.190Z,7.78
2023-03-31T10:56:20.843Z,7.50
2023-03-31T10:59:12.509Z,6.97
2023-03-31T11:01:47.391Z,8.18
2023-03-31T11:04:38.294Z,7.80
2023-03-31T11:07:05.270Z,8.55
2023-03-31T11:09:53.090Z,8.20
2023-03-31T11:12:19.998Z,8.95
2023-03-31T11:14:49.823Z,8.90
2023-03-31T11:20:16.421Z,9.38
2023-03-31T11:22:57.181Z,9.80
2023-03-31T11:25:43.144Z,9.52
2023-03-31T11:28:38.643Z,9.68
2023-03-31T11:31:12.662Z,8.85
2023-03-31T11:33:52.594Z,9.05
2023-03-31T11:36:28.770Z,9.25
2023-03-31T11:39:17.143Z,8.73
2023-03-31T11:41:50.704Z,10.13
2023-03-31T11:44:21.013Z,9.15
2023-03-31T11:46:59.961Z,8.23
2023-03-31T11:49:59.187Z,9.45
2023-03-31T11:52:30.901Z,8.45
2023-03-31T11:55:15.649Z,9.52
2023-03-31T11:58:01.271Z,8.55
2023-03-31T12:01:01.957Z,8.48
2023-03-31T12:03:48.025Z,8.80
2023-03-31T12:06:21.833Z,8.65
2023-03-31T12:09:04.548Z,9.43
2023-03-31T12:11:47.358Z,9.57
2023-03-31T12:14:51.749Z,9.50
2023-03-31T12:17:23.084Z,7.70
2023-03-31T12:19:57.794Z,8.88
2023-03-31T12:22:27.670Z,8.00
2023-03-31T12:24:54.767Z,8.98
2023-03-31T12:27:34.928Z,7.85
2023-03-31T12:30:26.986Z,7.68
2023-03-31T12:33:02.122Z,8.75
2023-03-31T12:35:29.160Z,9.32
2023-03-31T12:38:41.347Z,8.82
2023-03-31T12:41:28.828Z,8.00
2023-03-31T12:44:26.830Z,7.45
2023-03-31T12:47:06.368Z,7.22
2023-03-31T12:49:45.310Z,6.18
2023-03-31T12:52:20.501Z,5.27
2023-03-31T12:55:09.837Z,5.50
2023-03-31T12:57:37.454Z,5.45
2023-03-31T13:00:21.973Z,4.60
2023-03-31T13:02:50.104Z,4.47
2023-03-31T13:05:41.652Z,3.75
2023-03-31T13:08:09.048Z,3.63
2023-03-31T13:11:11.696Z,3.58
2023-03-31T13:13:59.812Z,3.20
2023-03-31T13:16:32.054Z,3.72
2023-03-31T13:18:59.813Z,3.70
2023-03-31T13:21:27.331Z,3.40
2023-03-31T13:24:00.793Z,3.10
2023-03-31T13:26:34.076Z,2.83
2023-03-31T13:29:15.051Z,3.33
2023-03-31T13:32:00.374Z,2.90
2023-03-31T13:34:37.978Z,2.90
2023-03-31T13:37:13.842Z,3.13
2023-03-31T13:40:10.107Z,3.38
2023-03-31T13:43:09.231Z,3.20
2023-03-31T13:46:27.913Z,2.65
2023-03-31T13:49:29.086Z,2.70
2023-03-31T13:52:02.062Z,2.30
2023-03-31T13:55:07.034Z,2.42
2023-03-31T13:58:32.808Z,3.45
2023-03-31T14:01:18.648Z,2.63
2023-03-31T14:03:55.071Z,2.83
2023-03-31T14:06:34.147Z,3.15
2023-03-31T14:09:24.742Z,2.78
2023-03-31T14:11:58.657Z,3.03
2023-03-31T14:14:26.476Z,2.63
2023-03-31T14:16:56.916Z,2.70
2023-03-31T14:19:42.897Z,2.75
2023-03-31T14:22:47.792Z,2.45
2023-03-31T14:25:16.062Z,2.83
2023-03-31T14:28:08.380Z,3.03
2023-03-31T14:30:47.769Z,3.45
2023-03-31T14:33:40.820Z,3.10
2023-03-31T14:36:49.241Z,2.80
2023-03-31T14:39:22.942Z,3.05
2023-03-31T14:42:00.145Z,2.95
2023-03-31T14:44:27.170Z,2.53
2023-03-31T14:46:57.482Z,3.38
2023-03-31T14:49:36.192Z,2.85
2023-03-31T14:52:21.010Z,3.45
2023-03-31T14:54:48.138Z,2.63
2023-03-31T14:57:21.613Z,2.70
2023-03-31T14:59:51.502Z,2.85
2023-03-31T15:04:49.799Z,2.80
2023-03-31T15:07:17.965Z,3.03
2023-03-31T15:09:49.907Z,2.70
2023-03-31T15:12:19.990Z,3.05
2023-03-31T15:14:49.679Z,2.78
2023-03-31T15:22:18.945Z,2.90
2023-03-31T15:24:46.727Z,2.58
2023-03-31T15:27:20.594Z,2.13
2023-03-31T15:29:53.811Z,2.75
2023-03-31T15:32:27.795Z,3.22
2023-03-31T15:34:57.362Z,2.58
2023-03-31T15:37:37.433Z,2.95
2023-03-31T15:40:09.470Z,3.05
2023-03-31T15:42:37.083Z,3.15
2023-03-31T15:47:55.015Z,3.80
2023-03-31T15:50:23.355Z,2.83
2023-03-31T15:52:53.380Z,3.35
2023-03-31T15:55:31.903Z,2.70
2023-03-31T15:58:00.816Z,3.10
2023-03-31T16:00:34.103Z,2.70
2023-03-31T16:03:03.878Z,3.95
2023-03-31T16:08:52.348Z,3.55
2023-03-31T16:11:28.252Z,3.17
2023-03-31T16:14:00.854Z,3.00
2023-03-31T16:16:29.488Z,3.22
2023-03-31T16:19:17.017Z,3.10
2023-03-31T16:21:52.578Z,4.22
2023-03-31T16:24:21.397Z,2.97
2023-03-31T16:26:49.197Z,3.08
2023-03-31T16:29:22.688Z,2.70
2023-03-31T16:31:50.074Z,2.80
2023-03-31T16:34:17.533Z,3.25
2023-03-31T16:36:44.602Z,3.00
2023-03-31T16:39:11.402Z,3.42
2023-03-31T16:41:38.412Z,2.38
2023-03-31T16:44:06.440Z,3.53
2023-03-31T16:46:33.587Z,3.42
2023-03-31T16:49:00.722Z,4.00
2023-03-31T16:51:27.774Z,2.70
2023-03-31T16:53:56.154Z,3.25
2023-03-31T16:56:26.352Z,3.55
2023-03-31T16:58:53.725Z,3.45
2023-03-31T17:01:20.687Z,3.67
2023-03-31T17:03:48.429Z,2.88
2023-03-31T17:06:15.700Z,3.30
2023-03-31T17:08:42.708Z,3.42
2023-03-31T17:11:12.639Z,3.20
2023-03-31T17:13:41.763Z,3.72
2023-03-31T17:16:20.387Z,3.13
2023-03-31T17:18:54.357Z,2.95
2023-03-31T17:21:21.913Z,3.60
2023-03-31T17:23:49.766Z,2.80
2023-03-31T17:26:17.758Z,3.35
2023-03-31T17:28:44.873Z,3.17
2023-03-31T17:31:14.346Z,3.38
2023-03-31T17:33:42.360Z,3.58
2023-03-31T17:36:10.996Z,3.17
2023-03-31T17:38:39.769Z,3.78
2023-03-31T17:41:09.188Z,3.47
2023-03-31T17:43:36.518Z,3.30
2023-03-31T17:46:06.242Z,3.65
2023-03-31T17:51:14.885Z,3.17
2023-03-31T17:53:44.291Z,4.07
2023-03-31T17:56:11.717Z,4.80
2023-03-31T17:58:38.592Z,6.43
2023-03-31T18:01:07.842Z,5.43
2023-03-31T18:03:35.158Z,5.43
2023-03-31T18:06:06.644Z,5.32
2023-03-31T18:08:34.808Z,5.82
2023-03-31T18:11:02.889Z,6.32
2023-03-31T18:13:30.627Z,7.55
2023-03-31T18:15:58.056Z,7.68
2023-03-31T18:18:26.785Z,6.68
2023-03-31T18:20:54.215Z,6.25
2023-03-31T18:23:21.660Z,7.20
2023-03-31T18:25:48.625Z,7.10
2023-03-31T18:28:17.395Z,7.97
2023-03-31T18:30:44.849Z,6.47
2023-03-31T18:33:12.839Z,6.10
2023-03-31T18:35:40.039Z,5.30
2023-03-31T18:38:07.337Z,5.63
2023-03-31T18:40:34.368Z,6.18
2023-03-31T18:43:02.591Z,5.95
2023-03-31T18:45:30.716Z,6.50
2023-03-31T18:47:58.147Z,6.32
2023-03-31T18:50:25.896Z,7.25
2023-03-31T18:52:54.459Z,6.95
2023-03-31T18:55:22.304Z,6.10
2023-03-31T18:57:49.422Z,6.85
2023-03-31T19:00:17.215Z,6.47
2023-03-31T19:02:44.431Z,6.40
2023-03-31T19:05:11.552Z,5.72
2023-03-31T19:07:39.424Z,6.05
2023-03-31T19:10:07.173Z,5.00
2023-03-31T19:12:34.102Z,5.18
2023-03-31T19:15:01.017Z,5.80
2023-03-31T19:17:28.244Z,6.07
2023-03-31T19:19:55.135Z,6.00
2023-03-31T19:22:22.071Z,6.07
2023-03-31T19:24:48.904Z,6.93
2023-03-31T19:27:16.791Z,8.77
2023-03-31T19:29:43.704Z,10.32
2023-03-31T19:32:10.761Z,10.90
2023-03-31T19:34:38.281Z,9.63
2023-03-31T19:37:05.292Z,9.05
2023-03-31T19:39:32.291Z,8.60
2023-03-31T19:41:59.178Z,9.38
2023-03-31T19:44:26.192Z,8.70
2023-03-31T19:46:53.015Z,7.72
2023-03-31T19:49:20.035Z,7.20
2023-03-31T19:51:47.132Z,8.68
2023-03-31T19:54:14.076Z,9.65
2023-03-31T19:56:41.002Z,7.72
2023-03-31T19:59:07.843Z,7.35
2023-03-31T20:01:34.926Z,6.75
2023-03-31T20:04:02.154Z,7.50
2023-03-31T20:06:31.781Z,7.63
2023-03-31T20:09:02.139Z,7.40
2023-03-31T20:11:30.983Z,7.03
2023-03-31T20:13:58.486Z,8.35
2023-03-31T20:16:28.078Z,10.38
2023-03-31T20:21:27.235Z,9.88
2023-03-31T20:23:55.123Z,9.55
2023-03-31T20:26:25.073Z,11.45
2023-03-31T20:28:54.295Z,10.15
2023-03-31T20:31:26.539Z,10.63
2023-03-31T20:33:54.489Z,9.02
2023-03-31T20:36:23.900Z,10.25
2023-03-31T20:38:53.240Z,9.68
2023-03-31T20:41:23.153Z,7.90
2023-03-31T20:43:50.721Z,8.88
2023-03-31T20:46:18.188Z,9.70
2023-03-31T20:49:03.780Z,11.80
2023-03-31T20:51:34.453Z,12.23
2023-03-31T20:54:02.012Z,11.70
2023-03-31T20:56:35.099Z,11.48
2023-03-31T20:59:02.224Z,11.27
2023-03-31T21:01:32.616Z,10.05
2023-03-31T21:04:02.039Z,9.05
2023-03-31T21:06:32.637Z,8.85
2023-03-31T21:08:59.634Z,8.60
2023-03-31T21:11:27.461Z,9.48
2023-03-31T21:13:57.007Z,9.10
2023-03-31T21:16:25.367Z,9.07
2023-03-31T21:18:55.017Z,10.10
2023-03-31T21:21:24.452Z,11.15
2023-03-31T21:23:51.651Z,12.73
2023-03-31T21:26:19.313Z,11.65
2023-03-31T21:28:46.329Z,11.13
2023-03-31T21:31:17.070Z,10.63
2023-03-31T21:33:46.561Z,8.48
2023-03-31T21:36:19.103Z,8.18
2023-03-31T21:38:46.077Z,7.90
2023-03-31T21:41:14.736Z,6.25
2023-03-31T21:43:42.337Z,5.95
2023-03-31T21:46:12.301Z,5.05
2023-03-31T21:48:39.207Z,4.72
2023-03-31T21:51:12.780Z,4.80
2023-03-31T21:53:42.854Z,3.10
2023-03-31T21:56:09.720Z,3.80
2023-03-31T21:58:36.779Z,3.75
2023-03-31T22:01:04.979Z,3.97
2023-03-31T22:03:35.170Z,3.78
2023-03-31T22:06:04.191Z,3.28
2023-03-31T22:08:31.691Z,2.80
2023-03-31T22:11:00.579Z,2.92
2023-03-31T22:13:28.996Z,2.40
2023-03-31T22:15:56.349Z,1.30
2023-03-31T22:18:23.806Z,1.58
2023-03-31T22:20:50.928Z,1.77
2023-03-31T22:23:20.550Z,1.33
2023-03-31T22:25:48.123Z,1.17
2023-03-31T22:28:16.715Z,1.30
2023-03-31T22:30:44.080Z,1.50
2023-03-31T22:33:11.304Z,1.58
2023-03-31T22:35:38.266Z,1.80
2023-03-31T22:38:06.588Z,1.63
2023-03-31T22:40:35.688Z,1.52
2023-03-31T22:43:02.654Z,1.60
2023-03-31T22:45:29.590Z,1.60
2023-03-31T22:47:57.034Z,1.60
2023-03-31T22:50:24.625Z,1.50
2023-03-31T22:52:52.060Z,1.40
2023-03-31T22:55:19.008Z,1.45
2023-03-31T22:57:46.407Z,1.67
2023-03-31T23:00:13.845Z,1.33
2023-03-31T23:02:41.394Z,1.20
2023-03-31T23:05:09.036Z,1.30
2023-03-31T23:07:36.240Z,1.42
2023-03-31T23:10:03.211Z,1.50
2023-03-31T23:12:30.359Z,1.30
2023-03-31T23:14:57.318Z,1.50
2023-03-31T23:17:24.189Z,1.40
2023-03-31T23:19:51.342Z,1.50
2023-03-31T23:22:18.895Z,1.50
2023-03-31T23:24:48.135Z,1.70
2023-03-31T23:27:15.032Z,1.60
2023-03-31T23:29:41.906Z,2.03
2023-03-31T23:32:08.829Z,1.40
2023-03-31T23:34:36.124Z,1.35
2023-03-31T23:37:02.982Z,1.40
2023-03-31T23:39:29.925Z,1.65
2023-03-31T23:41:57.262Z,1.45
2023-03-31T23:44:24.163Z,1.65
2023-03-31T23:46:51.173Z,1.80
2023-03-31T23:49:18.073Z,1.25
2023-03-31T23:51:44.986Z,1.35
2023-03-31T23:54:12.285Z,1.70
2023-03-31T23:56:39.328Z,1.63
2023-03-31T23:59:06.403Z,1.75
